createdAt,value
2023-03-19T00:00:31.699Z,100602.91
2023-03-19T00:02:58.813Z,100601.56
2023-03-19T00:05:30.373Z,100610.63
2023-03-19T00:07:57.565Z,100601.56
2023-03-19T00:10:30.220Z,100594.19
2023-03-19T00:12:57.464Z,100600.22
2023-03-19T00:15:24.679Z,100603.00
2023-03-19T00:18:00.816Z,100602.41
2023-03-19T00:20:28.155Z,100594.53
2023-03-19T00:22:56.303Z,100591.28
2023-03-19T00:25:23.905Z,100592.91
2023-03-19T00:28:11.115Z,100594.88
2023-03-19T00:31:31.616Z,100594.56
2023-03-19T00:33:36.341Z,100594.28
2023-03-19T00:36:04.079Z,100595.22
2023-03-19T00:38:31.052Z,100583.97
2023-03-19T00:40:58.065Z,100586.16
2023-03-19T00:43:25.586Z,100589.03
2023-03-19T00:45:52.854Z,100589.22
2023-03-19T00:48:23.507Z,100591.34
2023-03-19T00:50:51.053Z,100589.16
2023-03-19T00:53:18.615Z,100587.69
2023-03-19T00:55:46.525Z,100586.97
2023-03-19T00:58:13.603Z,100582.34
2023-03-19T01:00:40.586Z,100589.91
2023-03-19T01:03:07.685Z,100578.16
2023-03-19T01:08:03.938Z,100576.41
2023-03-19T01:10:33.695Z,100573.66
2023-03-19T01:13:00.631Z,100573.25
2023-03-19T01:15:27.777Z,100563.63
2023-03-19T01:17:54.839Z,100566.22
2023-03-19T01:20:24.307Z,100568.13
2023-03-19T01:22:51.358Z,100570.00
2023-03-19T01:25:18.551Z,100560.97
2023-03-19T01:27:46.716Z,100561.72
2023-03-19T01:30:14.616Z,100562.97
2023-03-19T01:32:41.637Z,100559.50
2023-03-19T01:35:09.978Z,100556.81
2023-03-19T01:37:37.741Z,100557.19
2023-03-19T01:40:06.191Z,100554.75
2023-03-19T01:42:34.017Z,100558.34
2023-03-19T01:45:03.908Z,100551.16
2023-03-19T01:47:32.980Z,100549.91
2023-03-19T01:50:00.237Z,100541.97
2023-03-19T01:52:32.320Z,100547.91
2023-03-19T01:55:02.422Z,100542.78
2023-03-19T01:57:31.479Z,100544.41
2023-03-19T02:00:02.385Z,100539.16
2023-03-19T02:02:32.016Z,100545.50
2023-03-19T02:05:05.017Z,100544.78
2023-03-19T02:07:34.475Z,100561.72
2023-03-19T02:10:03.793Z,100558.47
2023-03-19T02:12:30.712Z,100551.31
2023-03-19T02:14:57.670Z,100552.56
2023-03-19T02:17:24.658Z,100562.41
2023-03-19T02:20:05.519Z,100552.44
2023-03-19T02:22:33.234Z,100553.81
2023-03-19T02:25:06.950Z,100551.66
2023-03-19T02:27:34.641Z,100544.25
2023-03-19T02:30:07.954Z,100556.19
2023-03-19T02:32:34.968Z,100554.63
2023-03-19T02:35:02.035Z,100547.09
2023-03-19T02:37:33.493Z,100547.38
2023-03-19T02:40:10.625Z,100550.03
2023-03-19T02:42:37.974Z,100546.41
2023-03-19T02:45:05.550Z,100555.41
2023-03-19T02:47:32.453Z,100553.72
2023-03-19T02:49:59.395Z,100564.97
2023-03-19T02:52:26.410Z,100555.75
2023-03-19T02:54:53.550Z,100554.94
2023-03-19T02:57:21.371Z,100556.34
2023-03-19T02:59:48.313Z,100551.94
2023-03-19T03:02:15.718Z,100554.53
2023-03-19T03:04:42.988Z,100559.31
2023-03-19T03:07:09.928Z,100560.03
2023-03-19T03:09:36.959Z,100556.06
2023-03-19T03:12:04.745Z,100555.41
2023-03-19T03:14:32.058Z,100563.16
2023-03-19T03:16:59.077Z,100563.78
2023-03-19T03:19:26.119Z,100563.91
2023-03-19T03:21:53.141Z,100568.41
2023-03-19T03:24:20.114Z,100576.78
2023-03-19T03:26:47.061Z,100568.63
2023-03-19T03:29:14.184Z,100574.34
2023-03-19T03:31:41.576Z,100569.78
2023-03-19T03:34:08.609Z,100580.94
2023-03-19T03:36:35.745Z,100570.16
2023-03-19T03:39:02.841Z,100570.34
2023-03-19T03:41:29.961Z,100573.00
2023-03-19T03:43:57.881Z,100578.25
2023-03-19T03:46:25.178Z,100574.12
2023-03-19T03:48:52.174Z,100574.75
2023-03-19T03:51:19.867Z,100570.31
2023-03-19T03:53:46.816Z,100568.16
2023-03-19T03:56:14.263Z,100570.94
2023-03-19T03:58:41.922Z,100577.91
2023-03-19T04:01:14.604Z,100570.75
2023-03-19T04:03:41.822Z,100575.44
2023-03-19T04:06:13.802Z,100575.81
2023-03-19T04:08:40.782Z,100575.63
2023-03-19T04:11:08.403Z,100578.59
2023-03-19T04:13:37.330Z,100579.41
2023-03-19T04:16:06.786Z,100582.56
2023-03-19T04:18:34.485Z,100580.72
2023-03-19T04:21:01.669Z,100581.88
2023-03-19T04:23:28.682Z,100576.78
2023-03-19T04:26:03.086Z,100587.25
2023-03-19T04:28:30.886Z,100574.56
2023-03-19T04:31:06.898Z,100578.28
2023-03-19T04:33:34.625Z,100570.31
2023-03-19T04:36:02.210Z,100570.19
2023-03-19T04:38:29.673Z,100572.63
2023-03-19T04:40:57.312Z,100569.50
2023-03-19T04:43:25.082Z,100575.50
2023-03-19T04:45:52.344Z,100576.22
2023-03-19T04:48:19.320Z,100584.53
2023-03-19T04:50:47.546Z,100579.84
2023-03-19T04:53:14.667Z,100583.16
2023-03-19T04:55:41.981Z,100573.00
2023-03-19T04:58:11.593Z,100574.06
2023-03-19T05:00:38.608Z,100575.44
2023-03-19T05:03:05.618Z,100562.66
2023-03-19T05:05:32.596Z,100564.34
2023-03-19T05:07:59.538Z,100574.00
2023-03-19T05:10:26.473Z,100577.91
2023-03-19T05:12:53.458Z,100580.00
2023-03-19T05:15:20.450Z,100567.31
2023-03-19T05:17:47.406Z,100564.22
2023-03-19T05:20:14.601Z,100569.69
2023-03-19T05:22:41.940Z,100573.97
2023-03-19T05:25:09.094Z,100576.22
2023-03-19T05:27:36.763Z,100570.81
2023-03-19T05:30:05.741Z,100580.00
2023-03-19T05:32:33.104Z,100582.75
2023-03-19T05:35:00.133Z,100577.62
2023-03-19T05:37:27.204Z,100575.00
2023-03-19T05:39:54.131Z,100584.38
2023-03-19T05:42:21.369Z,100583.28
2023-03-19T05:44:49.224Z,100585.00
2023-03-19T05:47:16.590Z,100580.81
2023-03-19T05:49:43.505Z,100585.59
2023-03-19T05:52:11.427Z,100582.97
2023-03-19T05:54:38.598Z,100579.97
2023-03-19T05:57:05.578Z,100583.81
2023-03-19T05:59:32.661Z,100582.56
2023-03-19T06:02:00.103Z,100580.31
2023-03-19T06:04:27.555Z,100575.16
2023-03-19T06:06:54.520Z,100571.47
2023-03-19T06:09:21.496Z,100579.41
2023-03-19T06:11:48.436Z,100574.38
2023-03-19T06:14:15.976Z,100572.97
2023-03-19T06:16:42.983Z,100581.56
2023-03-19T06:19:10.597Z,100572.19
2023-03-19T06:21:37.515Z,100573.94
2023-03-19T06:24:04.558Z,100578.38
2023-03-19T06:26:31.619Z,100585.69
2023-03-19T06:28:58.676Z,100586.09
2023-03-19T06:31:26.059Z,100579.91
2023-03-19T06:33:54.173Z,100588.56
2023-03-19T06:36:21.179Z,100594.50
2023-03-19T06:38:48.178Z,100592.81
2023-03-19T06:41:15.089Z,100601.56
2023-03-19T06:43:42.561Z,100595.91
2023-03-19T06:46:11.677Z,100591.84
2023-03-19T06:48:38.900Z,100593.81
2023-03-19T06:51:08.427Z,100611.56
2023-03-19T06:53:35.305Z,100603.34
2023-03-19T06:56:02.245Z,100611.16
2023-03-19T06:58:29.253Z,100605.38
2023-03-19T07:00:57.126Z,100605.41
2023-03-19T07:03:24.207Z,100606.50
2023-03-19T07:05:52.019Z,100609.34
2023-03-19T07:08:20.367Z,100618.00
2023-03-19T07:10:47.375Z,100611.16
2023-03-19T07:13:14.708Z,100622.41
2023-03-19T07:15:41.684Z,100618.25
2023-03-19T07:18:08.624Z,100628.72
2023-03-19T07:20:35.866Z,100624.41
2023-03-19T07:23:03.608Z,100637.56
2023-03-19T07:25:30.962Z,100620.81
2023-03-19T07:27:58.113Z,100635.53
2023-03-19T07:30:25.235Z,100640.19
2023-03-19T07:32:52.210Z,100635.00
2023-03-19T07:35:19.237Z,100635.19
2023-03-19T07:37:46.138Z,100623.94
2023-03-19T07:40:13.256Z,100614.34
2023-03-19T07:42:40.411Z,100609.97
2023-03-19T07:45:07.977Z,100602.09
2023-03-19T07:47:34.901Z,100609.81
2023-03-19T07:50:01.897Z,100608.19
2023-03-19T07:52:28.853Z,100614.31
2023-03-19T07:54:55.950Z,100614.28
2023-03-19T07:57:23.058Z,100597.63
2023-03-19T07:59:50.038Z,100603.78
2023-03-19T08:02:17.369Z,100604.72
2023-03-19T08:04:44.523Z,100620.47
2023-03-19T08:07:13.055Z,100612.63
2023-03-19T08:09:40.892Z,100616.09
2023-03-19T08:12:08.592Z,100603.84
2023-03-19T08:14:35.886Z,100601.22
2023-03-19T08:17:02.864Z,100601.22
2023-03-19T08:19:29.937Z,100598.59
2023-03-19T08:21:56.876Z,100602.09
2023-03-19T08:24:23.996Z,100613.47
2023-03-19T08:26:51.009Z,100601.19
2023-03-19T08:29:19.099Z,100602.97
2023-03-19T08:31:46.545Z,100614.38
2023-03-19T08:34:13.823Z,100601.22
2023-03-19T08:36:41.023Z,100595.03
2023-03-19T08:39:08.101Z,100599.44
2023-03-19T08:41:35.096Z,100594.03
2023-03-19T08:44:02.278Z,100579.00
2023-03-19T08:46:29.900Z,100588.59
2023-03-19T08:48:57.108Z,100593.94
2023-03-19T08:51:26.297Z,100607.13
2023-03-19T08:53:53.617Z,100597.53
2023-03-19T08:56:20.695Z,100584.94
2023-03-19T08:58:47.685Z,100601.69
2023-03-19T09:01:15.620Z,100598.94
2023-03-19T09:03:45.595Z,100603.22
2023-03-19T09:06:14.792Z,100606.00
2023-03-19T09:08:42.460Z,100588.94
2023-03-19T09:11:11.187Z,100603.75
2023-03-19T09:13:38.422Z,100596.03
2023-03-19T09:16:06.035Z,100588.78
2023-03-19T09:18:34.493Z,100584.59
2023-03-19T09:21:03.018Z,100578.81
2023-03-19T09:23:29.939Z,100579.50
2023-03-19T09:25:56.965Z,100574.84
2023-03-19T09:28:23.938Z,100566.69
2023-03-19T09:30:51.971Z,100564.50
2023-03-19T09:33:20.710Z,100590.19
2023-03-19T09:35:55.810Z,100577.50
2023-03-19T09:38:23.002Z,100582.00
2023-03-19T09:41:05.212Z,100572.84
2023-03-19T09:43:52.396Z,100565.94
2023-03-19T09:46:24.925Z,100570.88
2023-03-19T09:49:17.656Z,100570.66
2023-03-19T09:51:54.042Z,100588.78
2023-03-19T09:54:56.921Z,100573.97
2023-03-19T09:57:24.145Z,100581.31
2023-03-19T09:59:52.560Z,100577.34
2023-03-19T10:02:22.237Z,100581.97
2023-03-19T10:04:59.362Z,100579.72
2023-03-19T10:07:32.858Z,100583.72
2023-03-19T10:10:22.208Z,100565.19
2023-03-19T10:13:23.163Z,100570.13
2023-03-19T10:15:53.086Z,100561.84
2023-03-19T10:18:25.139Z,100558.81
2023-03-19T10:21:00.983Z,100570.78
2023-03-19T10:23:51.858Z,100558.03
2023-03-19T10:26:23.942Z,100573.34
2023-03-19T10:29:10.383Z,100566.28
2023-03-19T10:31:40.030Z,100554.50
2023-03-19T10:34:29.099Z,100547.38
2023-03-19T10:37:19.965Z,100548.97
2023-03-19T10:39:49.190Z,100543.00
2023-03-19T10:42:44.009Z,100546.81
2023-03-19T10:45:31.986Z,100542.84
2023-03-19T10:48:01.841Z,100544.09
2023-03-19T10:50:38.985Z,100539.53
2023-03-19T10:53:15.080Z,100522.94
2023-03-19T10:56:18.005Z,100516.75
2023-03-19T10:58:57.482Z,100502.63
2023-03-19T11:01:28.726Z,100501.84
2023-03-19T11:03:58.443Z,100512.31
2023-03-19T11:06:34.203Z,100496.72
2023-03-19T11:09:22.659Z,100499.00
2023-03-19T11:12:07.217Z,100495.03
2023-03-19T11:14:38.517Z,100499.72
2023-03-19T11:17:16.583Z,100482.66
2023-03-19T11:19:52.417Z,100477.66
2023-03-19T11:22:25.924Z,100467.13
2023-03-19T11:25:01.182Z,100473.34
2023-03-19T11:27:29.988Z,100466.81
2023-03-19T11:29:57.199Z,100462.69
2023-03-19T11:32:39.568Z,100466.28
2023-03-19T11:35:18.025Z,100469.50
2023-03-19T11:37:53.997Z,100454.78
2023-03-19T11:40:27.877Z,100447.09
2023-03-19T11:43:21.520Z,100435.19
2023-03-19T11:45:54.500Z,100450.47
2023-03-19T11:48:39.816Z,100440.66
2023-03-19T11:51:23.166Z,100434.69
2023-03-19T11:54:17.722Z,100434.50
2023-03-19T11:56:58.661Z,100419.66
2023-03-19T12:00:00.424Z,100414.09
2023-03-19T12:02:54.240Z,100413.00
2023-03-19T12:05:44.132Z,100412.75
2023-03-19T12:08:36.522Z,100410.37
2023-03-19T12:11:22.308Z,100416.81
2023-03-19T12:13:52.435Z,100402.41
2023-03-19T12:16:46.492Z,100396.81
2023-03-19T12:19:52.102Z,100394.81
2023-03-19T12:22:39.247Z,100386.22
2023-03-19T12:25:43.767Z,100380.97
2023-03-19T12:28:36.583Z,100374.78
2023-03-19T12:31:16.893Z,100374.00
2023-03-19T12:34:06.146Z,100366.44
2023-03-19T12:36:39.966Z,100372.75
2023-03-19T12:39:15.474Z,100354.97
2023-03-19T12:41:46.467Z,100358.09
2023-03-19T12:44:29.210Z,100350.31
2023-03-19T12:47:02.903Z,100368.78
2023-03-19T12:49:33.005Z,100344.94
2023-03-19T12:52:04.240Z,100340.97
2023-03-19T12:54:40.000Z,100349.66
2023-03-19T12:57:14.576Z,100344.25
2023-03-19T13:00:00.156Z,100347.06
2023-03-19T13:02:42.376Z,100347.09
2023-03-19T13:05:15.069Z,100347.44
2023-03-19T13:08:20.908Z,100343.19
2023-03-19T13:10:47.924Z,100348.87
2023-03-19T13:13:23.757Z,100340.53
2023-03-19T13:15:55.990Z,100334.69
2023-03-19T13:18:41.187Z,100321.50
2023-03-19T13:21:28.478Z,100315.91
2023-03-19T13:24:26.526Z,100314.31
2023-03-19T13:26:55.715Z,100318.63
2023-03-19T13:29:25.887Z,100319.16
2023-03-19T13:31:53.978Z,100314.38
2023-03-19T13:34:27.219Z,100318.00
2023-03-19T13:37:17.182Z,100307.44
2023-03-19T13:39:46.759Z,100307.19
2023-03-19T13:42:42.389Z,100299.38
2023-03-19T13:45:37.693Z,100294.75
2023-03-19T13:48:35.887Z,100307.56
2023-03-19T13:51:06.565Z,100301.81
2023-03-19T13:53:39.509Z,100302.25
2023-03-19T13:56:29.213Z,100301.41
2023-03-19T13:59:17.521Z,100302.06
2023-03-19T14:01:45.171Z,100292.97
2023-03-19T14:04:20.149Z,100291.22
2023-03-19T14:06:52.218Z,100282.06
2023-03-19T14:09:36.295Z,100285.13
2023-03-19T14:12:37.635Z,100284.13
2023-03-19T14:15:10.867Z,100277.47
2023-03-19T14:17:52.159Z,100281.00
2023-03-19T14:20:24.110Z,100278.06
2023-03-19T14:23:08.941Z,100261.03
2023-03-19T14:25:58.283Z,100261.91
2023-03-19T14:28:40.419Z,100260.78
2023-03-19T14:31:21.998Z,100260.59
2023-03-19T14:34:07.851Z,100256.03
2023-03-19T14:36:38.705Z,100257.84
2023-03-19T14:39:27.765Z,100257.31
2023-03-19T14:42:44.780Z,100258.06
2023-03-19T14:45:43.588Z,100255.38
2023-03-19T14:48:15.524Z,100252.72
2023-03-19T14:51:24.881Z,100263.28
2023-03-19T14:54:02.522Z,100268.47
2023-03-19T14:56:35.178Z,100265.50
2023-03-19T14:59:06.224Z,100265.91
2023-03-19T15:01:40.522Z,100261.00
2023-03-19T15:04:13.298Z,100264.78
2023-03-19T15:06:42.460Z,100266.06
2023-03-19T15:09:27.305Z,100260.66
2023-03-19T15:12:31.585Z,100259.78
2023-03-19T15:15:22.581Z,100261.63
2023-03-19T15:18:03.752Z,100260.09
2023-03-19T15:20:40.584Z,100265.31
2023-03-19T15:23:25.743Z,100267.31
2023-03-19T15:25:58.138Z,100263.06
2023-03-19T15:28:28.178Z,100264.13
2023-03-19T15:31:22.194Z,100259.94
2023-03-19T15:33:51.667Z,100267.09
2023-03-19T15:36:24.928Z,100264.41
2023-03-19T15:39:02.892Z,100267.72
2023-03-19T15:41:32.973Z,100275.63
2023-03-19T15:44:01.815Z,100276.16
2023-03-19T15:46:37.023Z,100277.75
2023-03-19T15:49:29.421Z,100272.44
2023-03-19T15:52:02.611Z,100284.06
2023-03-19T15:54:29.793Z,100279.75
2023-03-19T15:56:57.582Z,100284.31
2023-03-19T15:59:30.221Z,100280.72
2023-03-19T16:02:00.207Z,100273.81
2023-03-19T16:04:30.041Z,100284.78
2023-03-19T16:06:58.774Z,100277.13
2023-03-19T16:09:27.605Z,100289.56
2023-03-19T16:11:56.099Z,100292.72
2023-03-19T16:14:28.281Z,100288.63
2023-03-19T16:17:06.110Z,100301.19
2023-03-19T16:19:51.001Z,100292.13
2023-03-19T16:22:25.104Z,100295.31
2023-03-19T16:24:52.913Z,100295.44
2023-03-19T16:27:40.165Z,100302.56
2023-03-19T16:30:24.041Z,100302.53
2023-03-19T16:33:02.512Z,100302.78
2023-03-19T16:35:32.108Z,100299.81
2023-03-19T16:38:22.522Z,100305.13
2023-03-19T16:41:10.401Z,100301.16
2023-03-19T16:43:37.698Z,100304.38
2023-03-19T16:46:08.647Z,100313.75
2023-03-19T16:48:35.621Z,100303.06
2023-03-19T16:51:02.814Z,100309.16
2023-03-19T16:53:31.992Z,100310.72
2023-03-19T16:55:59.755Z,100304.84
2023-03-19T16:58:32.012Z,100306.78
2023-03-19T17:01:01.410Z,100312.00
2023-03-19T17:03:30.401Z,100315.59
2023-03-19T17:05:57.498Z,100312.50
2023-03-19T17:08:26.432Z,100322.53
2023-03-19T17:10:54.635Z,100328.00
2023-03-19T17:13:28.714Z,100329.31
2023-03-19T17:16:05.941Z,100328.97
2023-03-19T17:18:36.753Z,100335.53
2023-03-19T17:21:14.533Z,100333.16
2023-03-19T17:23:41.595Z,100337.19
2023-03-19T17:26:29.347Z,100339.09
2023-03-19T17:28:57.204Z,100337.44
2023-03-19T17:31:27.418Z,100341.59
2023-03-19T17:34:06.222Z,100340.75
2023-03-19T17:36:33.995Z,100340.00
2023-03-19T17:39:00.977Z,100342.47
2023-03-19T17:41:30.568Z,100330.41
2023-03-19T17:43:57.518Z,100338.75
2023-03-19T17:46:29.584Z,100338.94
2023-03-19T17:48:56.584Z,100329.28
2023-03-19T17:51:26.388Z,100327.44
2023-03-19T17:53:55.694Z,100335.53
2023-03-19T17:56:25.647Z,100330.44
2023-03-19T17:58:53.303Z,100329.78
2023-03-19T18:01:27.578Z,100336.63
2023-03-19T18:03:56.497Z,100327.38
2023-03-19T18:06:25.894Z,100329.78
2023-03-19T18:08:53.250Z,100339.25
2023-03-19T18:11:20.403Z,100338.37
2023-03-19T18:13:47.404Z,100332.72
2023-03-19T18:16:17.110Z,100340.25
2023-03-19T18:18:43.951Z,100340.16
2023-03-19T18:21:16.066Z,100338.63
2023-03-19T18:23:44.182Z,100344.63
2023-03-19T18:26:17.239Z,100348.44
2023-03-19T18:28:44.916Z,100346.25
2023-03-19T18:31:19.204Z,100348.53
2023-03-19T18:33:51.929Z,100348.00
2023-03-19T18:36:25.962Z,100346.72
2023-03-19T18:38:55.367Z,100342.88
2023-03-19T18:41:24.226Z,100345.28
2023-03-19T18:43:51.251Z,100352.44
2023-03-19T18:46:29.769Z,100348.38
2023-03-19T18:49:17.226Z,100355.72
2023-03-19T18:52:00.702Z,100366.88
2023-03-19T18:54:28.417Z,100364.12
2023-03-19T18:56:56.540Z,100364.91
2023-03-19T18:59:33.215Z,100365.97
2023-03-19T19:02:22.129Z,100371.47
2023-03-19T19:04:49.195Z,100377.59
2023-03-19T19:07:16.980Z,100375.69
2023-03-19T19:09:44.089Z,100377.38
2023-03-19T19:12:15.153Z,100382.69
2023-03-19T19:14:44.341Z,100382.44
2023-03-19T19:17:20.170Z,100380.88
2023-03-19T19:19:47.256Z,100367.94
2023-03-19T19:22:16.680Z,100378.28
2023-03-19T19:24:44.304Z,100376.56
2023-03-19T19:27:37.375Z,100377.00
2023-03-19T19:30:05.069Z,100374.94
2023-03-19T19:32:32.599Z,100369.28
2023-03-19T19:34:59.604Z,100382.97
2023-03-19T19:37:26.593Z,100375.25
2023-03-19T19:39:53.742Z,100375.31
2023-03-19T19:42:22.415Z,100372.78
2023-03-19T19:44:59.039Z,100378.91
2023-03-19T19:47:27.508Z,100385.00
2023-03-19T19:49:54.475Z,100385.91
2023-03-19T19:52:21.656Z,100385.25
2023-03-19T19:54:48.810Z,100383.19
2023-03-19T19:57:22.967Z,100381.88
2023-03-19T19:59:52.047Z,100382.31
2023-03-19T20:02:29.611Z,100383.78
2023-03-19T20:04:58.161Z,100376.75
2023-03-19T20:07:25.108Z,100386.88
2023-03-19T20:09:52.154Z,100393.00
2023-03-19T20:12:22.943Z,100387.53
2023-03-19T20:14:52.526Z,100383.31
2023-03-19T20:17:21.548Z,100390.03
2023-03-19T20:19:49.168Z,100382.00
2023-03-19T20:22:16.475Z,100388.28
2023-03-19T20:24:43.742Z,100388.72
2023-03-19T20:27:23.437Z,100380.69
2023-03-19T20:29:51.045Z,100381.94
2023-03-19T20:32:33.275Z,100384.47
2023-03-19T20:35:04.260Z,100379.72
2023-03-19T20:37:31.321Z,100378.66
2023-03-19T20:39:58.293Z,100377.59
2023-03-19T20:42:27.070Z,100376.91
2023-03-19T20:44:58.722Z,100382.91
2023-03-19T20:47:26.260Z,100379.63
2023-03-19T20:49:53.562Z,100388.88
2023-03-19T20:52:20.942Z,100387.88
2023-03-19T20:54:48.506Z,100391.00
2023-03-19T20:57:24.460Z,100392.91
2023-03-19T20:59:51.396Z,100387.75
2023-03-19T21:02:24.684Z,100389.22
2023-03-19T21:04:51.973Z,100391.78
2023-03-19T21:07:33.894Z,100391.94
2023-03-19T21:10:03.722Z,100392.84
2023-03-19T21:12:32.760Z,100389.16
2023-03-19T21:15:01.129Z,100390.03
2023-03-19T21:17:28.897Z,100391.09
2023-03-19T21:19:56.957Z,100389.81
2023-03-19T21:22:28.741Z,100383.63
2023-03-19T21:25:07.040Z,100386.41
2023-03-19T21:27:37.216Z,100389.22
2023-03-19T21:30:05.816Z,100396.53
2023-03-19T21:32:32.838Z,100393.72
2023-03-19T21:34:59.946Z,100383.00
2023-03-19T21:37:26.882Z,100380.44
2023-03-19T21:39:53.977Z,100384.53
2023-03-19T21:42:22.857Z,100373.06
2023-03-19T21:44:57.299Z,100374.97
2023-03-19T21:47:25.907Z,100381.47
2023-03-19T21:49:52.808Z,100376.94
2023-03-19T21:52:22.178Z,100378.38
2023-03-19T21:54:49.379Z,100377.88
2023-03-19T21:57:17.498Z,100380.69
2023-03-19T21:59:48.766Z,100376.09
2023-03-19T22:02:27.571Z,100385.56
2023-03-19T22:04:54.744Z,100386.84
2023-03-19T22:07:21.840Z,100392.91
2023-03-19T22:09:48.982Z,100398.38
2023-03-19T22:12:27.669Z,100383.22
2023-03-19T22:14:55.058Z,100383.09
2023-03-19T22:17:25.838Z,100389.72
2023-03-19T22:19:52.863Z,100389.84
2023-03-19T22:22:19.837Z,100393.22
2023-03-19T22:24:46.790Z,100395.88
2023-03-19T22:27:17.558Z,100399.31
2023-03-19T22:29:47.423Z,100402.00
2023-03-19T22:32:16.866Z,100396.34
2023-03-19T22:34:44.502Z,100384.88
2023-03-19T22:37:28.162Z,100400.41
2023-03-19T22:39:55.716Z,100392.91
2023-03-19T22:42:26.405Z,100398.31
2023-03-19T22:44:54.791Z,100392.91
2023-03-19T22:47:25.004Z,100396.41
2023-03-19T22:49:52.638Z,100398.94
2023-03-19T22:52:19.969Z,100404.56
2023-03-19T22:54:48.095Z,100400.25
2023-03-19T22:57:15.434Z,100401.72
2023-03-19T22:59:43.464Z,100399.94
2023-03-19T23:02:14.844Z,100398.94
2023-03-19T23:04:41.965Z,100407.34
2023-03-19T23:07:12.863Z,100398.56
2023-03-19T23:09:40.139Z,100397.88
2023-03-19T23:14:34.927Z,100403.34
2023-03-19T23:17:07.598Z,100401.00
2023-03-19T23:19:36.923Z,100395.78
2023-03-19T23:22:05.719Z,100387.25
2023-03-19T23:24:33.936Z,100394.09
2023-03-19T23:27:02.592Z,100395.00
2023-03-19T23:29:35.239Z,100395.00
2023-03-19T23:32:04.617Z,100395.16
2023-03-19T23:34:35.287Z,100394.31
2023-03-19T23:37:07.280Z,100393.50
2023-03-19T23:39:34.315Z,100394.59
2023-03-19T23:42:01.287Z,100406.09
2023-03-19T23:44:29.484Z,100410.63
2023-03-19T23:47:01.928Z,100410.53
2023-03-19T23:49:32.664Z,100402.06
2023-03-19T23:52:01.046Z,100402.03
2023-03-19T23:54:36.803Z,100408.03
2023-03-19T23:57:08.409Z,100414.19
2023-03-19T23:59:38.677Z,100419.34
